Picton, Canada
Current Conditions -  °F | °C
As of 3:00 PM on Thursday 30 Oct 2014 (Local Time) from CYTR Reporting Station
Scattered Clouds Scattered Clouds  
Wind Chill:   Ceiling: Unl
Heat Index:   Visibility: 15mi
Dew Point: -1°   Wind: 14mph
Humidity: 50%   Direction: 290°WNW
Pressure: 30.02"   Gusts: NA
Location:  44.01°N, 77.14°W
Report Text: CYTR 301900Z 29012KT 15SM FEW038 SCT220 09/M01 A3002 RMK SC2CI1 SLP167
Loading
Personal Weather Stations






























Interactive Weather Map
Tropical Storm Tracking
New forecast layout! Learn more

10-Day Weather Forecast

Advertisements
Track Severe Weather on mobile